sensor_id;sensor_type;location;lat;lon;timestamp;P1;durP1;ratioP1;P2;durP2;ratioP2
31091;SDS011;67728;53.122;12.776;2023-07-31T15:58:26;35.50;;;26.10;;
31091;SDS011;67728;53.122;12.776;2023-07-31T15:59:58;377.67;;;91.93;;
31091;SDS011;67728;53.122;12.776;2023-07-31T16:01:29;379.77;;;106.37;;
31091;SDS011;67728;53.122;12.776;2023-07-31T16:03:00;373.20;;;91.63;;
31091;SDS011;67728;53.122;12.776;2023-07-31T16:04:31;371.37;;;86.30;;
31091;SDS011;67728;53.122;12.776;2023-07-31T16:06:02;374.77;;;85.27;;
31091;SDS011;67728;53.122;12.776;2023-07-31T16:07:33;374.53;;;85.20;;
31091;SDS011;67728;53.122;12.776;2023-07-31T16:09:05;373.93;;;83.43;;
31091;SDS011;67728;53.122;12.776;2023-07-31T16:10:35;369.27;;;76.77;;
31091;SDS011;67728;53.122;12.776;2023-07-31T16:12:08;366.57;;;76.90;;
31091;SDS011;67728;53.122;12.776;2023-07-31T16:13:40;3.63;;;1.70;;
31091;SDS011;67728;53.122;12.776;2023-07-31T16:15:12;3.37;;;1.67;;
31091;SDS011;67728;53.122;12.776;2023-07-31T16:16:43;3.07;;;1.57;;
31091;SDS011;67728;53.122;12.776;2023-07-31T16:18:16;2.93;;;1.57;;
31091;SDS011;67728;53.122;12.776;2023-07-31T16:19:47;3.73;;;1.93;;
31091;SDS011;67728;53.122;12.776;2023-07-31T16:21:18;3.03;;;1.77;;
31091;SDS011;67728;53.122;12.776;2023-07-31T16:22:49;3.53;;;1.93;;
31091;SDS011;67728;53.122;12.776;2023-07-31T16:24:20;2.97;;;1.77;;
31091;SDS011;67728;53.122;12.776;2023-07-31T16:30:26;6.15;;;3.05;;
31091;SDS011;67728;53.122;12.776;2023-07-31T18:51:51;381.00;;;108.57;;
31091;SDS011;67728;53.122;12.776;2023-07-31T18:53:23;361.70;;;96.23;;
31091;SDS011;67728;53.122;12.776;2023-07-31T18:54:54;365.10;;;100.53;;
31091;SDS011;67728;53.122;12.776;2023-07-31T18:56:25;369.83;;;107.03;;
31091;SDS011;67728;53.122;12.776;2023-07-31T18:57:57;370.00;;;102.30;;
31091;SDS011;67728;53.122;12.776;2023-07-31T18:59:30;371.60;;;119.73;;
31091;SDS011;67728;53.122;12.776;2023-07-31T19:01:01;374.30;;;112.27;;
31091;SDS011;67728;53.122;12.776;2023-07-31T19:02:32;393.77;;;121.03;;
31091;SDS011;67728;53.122;12.776;2023-07-31T19:04:04;371.10;;;105.30;;
31091;SDS011;67728;53.122;12.776;2023-07-31T19:05:34;373.83;;;112.83;;
31091;SDS011;67728;53.122;12.776;2023-07-31T19:07:06;370.97;;;111.30;;
31091;SDS011;67728;53.122;12.776;2023-07-31T19:08:38;371.90;;;113.60;;
31091;SDS011;67728;53.122;12.776;2023-07-31T19:10:09;372.17;;;107.77;;
31091;SDS011;67728;53.122;12.776;2023-07-31T19:11:40;380.43;;;118.60;;
31091;SDS011;67728;53.122;12.776;2023-07-31T19:13:12;374.37;;;111.90;;
31091;SDS011;67728;53.122;12.776;2023-07-31T19:14:45;375.23;;;112.87;;
31091;SDS011;67728;53.122;12.776;2023-07-31T19:16:17;375.03;;;107.83;;
31091;SDS011;67728;53.122;12.776;2023-07-31T19:17:48;377.53;;;110.70;;
31091;SDS011;67728;53.122;12.776;2023-07-31T19:19:19;379.70;;;111.70;;
31091;SDS011;67728;53.122;12.776;2023-07-31T19:20:50;385.40;;;120.47;;
31091;SDS011;67728;53.122;12.776;2023-07-31T19:22:24;395.17;;;123.53;;
31091;SDS011;67728;53.122;12.776;2023-07-31T19:23:55;378.97;;;109.03;;
31091;SDS011;67728;53.122;12.776;2023-07-31T19:25:26;374.57;;;108.83;;
31091;SDS011;67728;53.122;12.776;2023-07-31T19:26:57;375.37;;;109.33;;
31091;SDS011;67728;53.122;12.776;2023-07-31T19:28:29;377.03;;;107.87;;
31091;SDS011;67728;53.122;12.776;2023-07-31T19:30:01;374.03;;;107.50;;
31091;SDS011;67728;53.122;12.776;2023-07-31T19:31:33;371.57;;;100.73;;
31091;SDS011;67728;53.122;12.776;2023-07-31T19:33:03;376.00;;;108.03;;
31091;SDS011;67728;53.122;12.776;2023-07-31T19:34:35;376.20;;;109.80;;
31091;SDS011;67728;53.122;12.776;2023-07-31T19:36:05;379.97;;;113.83;;
31091;SDS011;67728;53.122;12.776;2023-07-31T19:37:37;388.53;;;110.53;;
31091;SDS011;67728;53.122;12.776;2023-07-31T19:39:08;378.33;;;111.73;;
31091;SDS011;67728;53.122;12.776;2023-07-31T19:40:40;377.53;;;108.57;;
31091;SDS011;67728;53.122;12.776;2023-07-31T19:42:10;379.80;;;117.07;;
31091;SDS011;67728;53.122;12.776;2023-07-31T19:43:42;380.03;;;114.90;;
31091;SDS011;67728;53.122;12.776;2023-07-31T19:45:14;378.77;;;114.20;;
31091;SDS011;67728;53.122;12.776;2023-07-31T19:46:46;378.73;;;110.57;;
31091;SDS011;67728;53.122;12.776;2023-07-31T19:48:17;382.87;;;115.37;;
31091;SDS011;67728;53.122;12.776;2023-07-31T19:49:51;386.83;;;115.33;;
31091;SDS011;67728;53.122;12.776;2023-07-31T19:51:22;392.93;;;114.97;;
31091;SDS011;67728;53.122;12.776;2023-07-31T19:52:53;389.47;;;117.53;;
31091;SDS011;67728;53.122;12.776;2023-07-31T19:54:24;382.20;;;112.97;;
31091;SDS011;67728;53.122;12.776;2023-07-31T19:55:55;384.77;;;113.80;;
31091;SDS011;67728;53.122;12.776;2023-07-31T19:57:28;382.43;;;113.03;;
31091;SDS011;67728;53.122;12.776;2023-07-31T19:58:59;383.10;;;109.47;;
31091;SDS011;67728;53.122;12.776;2023-07-31T20:00:31;393.97;;;124.07;;
31091;SDS011;67728;53.122;12.776;2023-07-31T20:02:03;383.53;;;108.87;;
31091;SDS011;67728;53.122;12.776;2023-07-31T20:03:34;379.83;;;109.47;;
31091;SDS011;67728;53.122;12.776;2023-07-31T20:05:06;380.77;;;107.03;;
31091;SDS011;67728;53.122;12.776;2023-07-31T20:06:37;370.53;;;93.47;;
31091;SDS011;67728;53.122;12.776;2023-07-31T20:08:09;369.27;;;90.00;;
31091;SDS011;67728;53.122;12.776;2023-07-31T20:09:40;373.07;;;93.33;;
31091;SDS011;67728;53.122;12.776;2023-07-31T20:11:11;374.70;;;91.80;;
31091;SDS011;67728;53.122;12.776;2023-07-31T20:12:43;385.13;;;97.40;;
31091;SDS011;67728;53.122;12.776;2023-07-31T20:14:13;372.40;;;83.80;;
31091;SDS011;67728;53.122;12.776;2023-07-31T20:15:46;371.83;;;80.90;;
31091;SDS011;67728;53.122;12.776;2023-07-31T20:17:18;374.27;;;84.30;;
31091;SDS011;67728;53.122;12.776;2023-07-31T20:18:48;5.90;;;2.37;;
31091;SDS011;67728;53.122;12.776;2023-07-31T20:20:20;5.30;;;2.47;;
31091;SDS011;67728;53.122;12.776;2023-07-31T20:21:52;5.73;;;2.63;;
31091;SDS011;67728;53.122;12.776;2023-07-31T20:23:24;4.37;;;2.07;;
31091;SDS011;67728;53.122;12.776;2023-07-31T20:24:56;5.63;;;2.50;;
31091;SDS011;67728;53.122;12.776;2023-07-31T20:26:26;5.50;;;2.27;;
31091;SDS011;67728;53.122;12.776;2023-07-31T20:27:58;15.67;;;5.30;;
31091;SDS011;67728;53.122;12.776;2023-07-31T20:29:29;3.90;;;2.03;;
31091;SDS011;67728;53.122;12.776;2023-07-31T20:31:02;4.60;;;2.43;;
31091;SDS011;67728;53.122;12.776;2023-07-31T20:32:32;275.20;;;60.67;;
31091;SDS011;67728;53.122;12.776;2023-07-31T20:34:04;378.00;;;98.80;;
31091;SDS011;67728;53.122;12.776;2023-07-31T20:35:37;375.93;;;105.37;;
31091;SDS011;67728;53.122;12.776;2023-07-31T20:37:09;378.57;;;107.07;;
31091;SDS011;67728;53.122;12.776;2023-07-31T20:38:39;378.97;;;106.10;;
31091;SDS011;67728;53.122;12.776;2023-07-31T20:40:11;383.50;;;109.53;;
31091;SDS011;67728;53.122;12.776;2023-07-31T20:41:42;382.97;;;108.07;;
31091;SDS011;67728;53.122;12.776;2023-07-31T20:43:14;388.30;;;121.00;;
31091;SDS011;67728;53.122;12.776;2023-07-31T20:44:47;386.67;;;114.23;;
31091;SDS011;67728;53.122;12.776;2023-07-31T20:46:20;379.43;;;106.07;;
31091;SDS011;67728;53.122;12.776;2023-07-31T20:47:51;381.60;;;110.13;;
31091;SDS011;67728;53.122;12.776;2023-07-31T20:49:25;376.43;;;102.27;;
31091;SDS011;67728;53.122;12.776;2023-07-31T20:50:58;381.57;;;112.20;;
31091;SDS011;67728;53.122;12.776;2023-07-31T20:52:30;376.63;;;100.43;;
31091;SDS011;67728;53.122;12.776;2023-07-31T20:54:01;376.87;;;104.73;;
31091;SDS011;67728;53.122;12.776;2023-07-31T20:55:33;379.60;;;107.03;;
31091;SDS011;67728;53.122;12.776;2023-07-31T20:57:04;377.70;;;104.93;;
31091;SDS011;67728;53.122;12.776;2023-07-31T20:58:36;380.50;;;108.37;;
31091;SDS011;67728;53.122;12.776;2023-07-31T21:00:08;379.13;;;107.53;;
31091;SDS011;67728;53.122;12.776;2023-07-31T21:01:40;380.17;;;107.93;;
31091;SDS011;67728;53.122;12.776;2023-07-31T21:03:12;392.67;;;111.17;;
31091;SDS011;67728;53.122;12.776;2023-07-31T21:04:43;375.73;;;99.73;;
31091;SDS011;67728;53.122;12.776;2023-07-31T21:06:15;378.90;;;103.97;;
31091;SDS011;67728;53.122;12.776;2023-07-31T21:07:47;381.60;;;103.43;;
31091;SDS011;67728;53.122;12.776;2023-07-31T21:09:18;379.47;;;99.60;;
31091;SDS011;67728;53.122;12.776;2023-07-31T21:10:49;383.27;;;103.00;;
31091;SDS011;67728;53.122;12.776;2023-07-31T21:12:21;383.73;;;104.33;;
31091;SDS011;67728;53.122;12.776;2023-07-31T21:13:52;382.33;;;97.97;;
31091;SDS011;67728;53.122;12.776;2023-07-31T21:15:23;386.10;;;96.63;;
31091;SDS011;67728;53.122;12.776;2023-07-31T21:16:57;380.63;;;89.70;;
31091;SDS011;67728;53.122;12.776;2023-07-31T21:18:29;380.47;;;89.23;;
31091;SDS011;67728;53.122;12.776;2023-07-31T21:20:00;381.50;;;87.87;;
31091;SDS011;67728;53.122;12.776;2023-07-31T21:21:31;381.27;;;85.30;;
31091;SDS011;67728;53.122;12.776;2023-07-31T21:23:03;382.33;;;85.63;;
31091;SDS011;67728;53.122;12.776;2023-07-31T21:24:36;380.20;;;84.60;;
31091;SDS011;67728;53.122;12.776;2023-07-31T21:26:07;380.57;;;83.77;;
31091;SDS011;67728;53.122;12.776;2023-07-31T21:27:39;377.37;;;79.43;;
31091;SDS011;67728;53.122;12.776;2023-07-31T21:29:09;377.20;;;79.07;;
31091;SDS011;67728;53.122;12.776;2023-07-31T21:30:41;377.27;;;79.03;;
31091;SDS011;67728;53.122;12.776;2023-07-31T21:32:13;381.03;;;83.77;;
31091;SDS011;67728;53.122;12.776;2023-07-31T21:33:45;379.63;;;82.77;;
31091;SDS011;67728;53.122;12.776;2023-07-31T21:35:15;380.63;;;83.97;;
31091;SDS011;67728;53.122;12.776;2023-07-31T21:36:47;277.77;;;61.17;;
31091;SDS011;67728;53.122;12.776;2023-07-31T21:38:17;83.57;;;18.53;;
31091;SDS011;67728;53.122;12.776;2023-07-31T21:39:49;376.13;;;79.73;;
31091;SDS011;67728;53.122;12.776;2023-07-31T21:41:20;378.23;;;81.53;;
31091;SDS011;67728;53.122;12.776;2023-07-31T21:42:52;381.47;;;82.43;;
31091;SDS011;67728;53.122;12.776;2023-07-31T21:44:23;376.63;;;79.77;;
31091;SDS011;67728;53.122;12.776;2023-07-31T21:45:55;378.27;;;80.33;;
31091;SDS011;67728;53.122;12.776;2023-07-31T21:47:28;380.63;;;83.90;;
31091;SDS011;67728;53.122;12.776;2023-07-31T21:48:59;383.37;;;84.57;;
31091;SDS011;67728;53.122;12.776;2023-07-31T21:50:31;374.57;;;78.10;;
31091;SDS011;67728;53.122;12.776;2023-07-31T21:52:01;383.17;;;84.93;;
31091;SDS011;67728;53.122;12.776;2023-07-31T21:53:33;381.80;;;81.60;;
31091;SDS011;67728;53.122;12.776;2023-07-31T21:55:04;377.60;;;83.50;;
31091;SDS011;67728;53.122;12.776;2023-07-31T21:56:37;377.43;;;82.27;;
31091;SDS011;67728;53.122;12.776;2023-07-31T21:58:07;376.33;;;80.33;;
31091;SDS011;67728;53.122;12.776;2023-07-31T21:59:39;376.67;;;79.43;;
31091;SDS011;67728;53.122;12.776;2023-07-31T22:01:10;373.47;;;75.23;;
31091;SDS011;67728;53.122;12.776;2023-07-31T22:02:43;372.53;;;75.60;;
31091;SDS011;67728;53.122;12.776;2023-07-31T22:04:14;377.10;;;79.37;;
31091;SDS011;67728;53.122;12.776;2023-07-31T22:05:45;4.07;;;1.83;;
31091;SDS011;67728;53.122;12.776;2023-07-31T22:07:16;3.53;;;1.63;;
31091;SDS011;67728;53.122;12.776;2023-07-31T22:08:47;13.17;;;4.33;;
31091;SDS011;67728;53.122;12.776;2023-07-31T22:10:18;4.33;;;1.93;;
31091;SDS011;67728;53.122;12.776;2023-07-31T22:11:49;4.37;;;1.97;;
31091;SDS011;67728;53.122;12.776;2023-07-31T22:13:21;3.83;;;1.90;;
31091;SDS011;67728;53.122;12.776;2023-07-31T22:14:52;5.93;;;2.83;;
